createdAt,value
2019-05-21T00:00:41.731Z,59.80
2019-05-21T00:03:27.810Z,60.87
2019-05-21T00:06:14.090Z,61.67
2019-05-21T00:09:00.395Z,53.50
2019-05-21T00:11:46.670Z,60.60
2019-05-21T00:14:32.770Z,54.60
2019-05-21T00:17:18.850Z,50.77
2019-05-21T00:20:05.230Z,51.23
2019-05-21T00:22:51.510Z,48.17
2019-05-21T00:25:37.470Z,53.87
2019-05-21T00:28:38.420Z,47.30
2019-05-21T00:32:01.492Z,45.00
2019-05-21T00:35:26.530Z,55.40
2019-05-21T00:38:51.955Z,48.10
2019-05-21T00:42:01.904Z,46.33
2019-05-21T00:44:48.290Z,42.87
2019-05-21T00:47:34.771Z,47.93
2019-05-21T00:50:20.672Z,45.27
2019-05-21T00:53:06.870Z,52.20
2019-05-21T00:55:53.212Z,47.00
2019-05-21T00:58:39.790Z,50.47
2019-05-21T01:01:25.851Z,52.07
2019-05-21T01:04:11.951Z,49.67
2019-05-21T01:06:58.084Z,48.07
2019-05-21T01:09:44.292Z,45.60
2019-05-21T01:12:30.471Z,44.77
2019-05-21T01:15:16.612Z,52.47
2019-05-21T01:18:02.992Z,56.97
2019-05-21T01:20:49.110Z,51.53
2019-05-21T01:23:35.570Z,51.50
2019-05-21T01:26:22.411Z,53.20
2019-05-21T01:29:08.511Z,53.73
2019-05-21T01:31:54.830Z,52.97
2019-05-21T01:34:41.435Z,50.83
2019-05-21T01:37:27.774Z,50.90
2019-05-21T01:40:13.991Z,52.97
2019-05-21T01:43:03.226Z,48.60
2019-05-21T01:45:48.511Z,46.40
2019-05-21T01:48:34.832Z,50.07
2019-05-21T01:51:21.192Z,47.30
2019-05-21T01:54:07.491Z,49.40
2019-05-21T01:56:53.812Z,51.67
2019-05-21T01:59:40.091Z,47.50
2019-05-21T02:02:26.831Z,45.90
2019-05-21T02:05:14.571Z,39.70
2019-05-21T02:08:01.173Z,49.53
2019-05-21T02:10:47.191Z,40.50
2019-05-21T02:13:33.553Z,48.27
2019-05-21T02:16:19.631Z,39.93
2019-05-21T02:19:05.970Z,39.37
2019-05-21T02:21:52.071Z,39.43
2019-05-21T02:24:38.052Z,41.03
2019-05-21T02:27:24.090Z,40.37
2019-05-21T02:30:10.534Z,38.43
2019-05-21T02:32:56.791Z,42.73
2019-05-21T02:35:53.528Z,41.63
2019-05-21T02:38:31.073Z,45.60
2019-05-21T02:41:17.104Z,48.27
2019-05-21T02:44:03.406Z,49.03
2019-05-21T02:46:49.758Z,46.03
2019-05-21T02:49:35.906Z,47.00
2019-05-21T02:52:21.867Z,47.67
2019-05-21T02:55:08.496Z,50.43
2019-05-21T02:57:54.229Z,55.57
2019-05-21T03:00:58.478Z,51.67
2019-05-21T03:03:45.146Z,57.20
2019-05-21T03:06:31.211Z,51.60
2019-05-21T03:09:17.262Z,56.77
2019-05-21T03:12:03.881Z,54.20
2019-05-21T03:14:49.673Z,51.17
2019-05-21T03:17:35.804Z,51.33
2019-05-21T03:20:21.940Z,57.40
2019-05-21T03:23:07.997Z,59.70
2019-05-21T03:25:54.241Z,51.17
2019-05-21T03:28:40.211Z,51.10
2019-05-21T03:31:26.300Z,48.57
2019-05-21T03:34:12.665Z,45.03
2019-05-21T03:36:58.833Z,49.90
2019-05-21T03:39:45.068Z,52.23
2019-05-21T03:42:31.323Z,51.30
2019-05-21T03:45:17.493Z,48.57
2019-05-21T03:48:03.671Z,45.90
2019-05-21T03:50:49.623Z,52.87
2019-05-21T03:53:35.612Z,56.30
2019-05-21T03:56:21.785Z,54.20
2019-05-21T03:59:07.912Z,53.57
2019-05-21T04:01:53.902Z,48.33
2019-05-21T04:04:40.263Z,56.67
2019-05-21T04:07:26.319Z,50.37
2019-05-21T04:10:14.225Z,48.70
2019-05-21T04:13:07.082Z,46.10
2019-05-21T04:16:12.274Z,51.20
2019-05-21T04:19:02.701Z,45.37
2019-05-21T04:21:48.768Z,45.77
2019-05-21T04:24:34.869Z,47.47
2019-05-21T04:27:21.024Z,52.67
2019-05-21T04:30:11.248Z,49.23
2019-05-21T04:32:56.301Z,48.23
2019-05-21T04:35:42.477Z,52.87
2019-05-21T04:38:28.577Z,57.90
2019-05-21T04:41:14.734Z,59.90
2019-05-21T04:44:00.891Z,59.33
2019-05-21T04:46:46.922Z,63.77
2019-05-21T04:49:33.159Z,64.20
2019-05-21T04:52:19.386Z,65.53
2019-05-21T04:55:05.775Z,68.03
2019-05-21T04:57:51.642Z,72.20
2019-05-21T05:00:37.923Z,68.23
2019-05-21T05:03:23.937Z,68.73
2019-05-21T05:06:10.257Z,74.27
2019-05-21T05:08:56.286Z,72.33
2019-05-21T05:11:42.434Z,70.17
2019-05-21T05:14:28.552Z,72.73
2019-05-21T05:17:14.702Z,74.97
2019-05-21T05:20:00.737Z,69.80
2019-05-21T05:22:46.926Z,69.60
2019-05-21T05:25:32.957Z,77.03
2019-05-21T05:28:19.134Z,68.33
2019-05-21T05:31:05.229Z,75.77
2019-05-21T05:33:51.244Z,71.07
2019-05-21T05:36:37.575Z,74.37
2019-05-21T05:39:23.651Z,75.07
2019-05-21T05:42:09.878Z,69.97
2019-05-21T05:44:56.188Z,69.97
2019-05-21T05:47:42.446Z,71.07
2019-05-21T05:50:32.673Z,74.53
2019-05-21T05:53:18.857Z,72.80
2019-05-21T05:56:04.907Z,72.70
2019-05-21T05:58:50.917Z,75.93
2019-05-21T06:01:37.171Z,71.17
2019-05-21T06:04:23.269Z,73.17
2019-05-21T06:07:09.412Z,72.27
2019-05-21T06:09:55.842Z,70.67
2019-05-21T06:12:41.904Z,73.10
2019-05-21T06:15:28.022Z,71.67
2019-05-21T06:18:14.302Z,67.00
2019-05-21T06:21:00.477Z,67.40
2019-05-21T06:23:46.547Z,74.10
2019-05-21T06:26:32.647Z,63.77
2019-05-21T06:29:18.790Z,64.17
2019-05-21T06:32:05.047Z,62.20
2019-05-21T06:34:51.129Z,58.70
2019-05-21T06:37:37.257Z,61.90
2019-05-21T06:40:23.685Z,60.23
2019-05-21T06:43:09.749Z,55.57
2019-05-21T06:45:55.838Z,56.10
2019-05-21T06:48:42.073Z,54.53
2019-05-21T06:51:28.180Z,66.93
2019-05-21T06:54:14.364Z,62.10
2019-05-21T06:57:00.480Z,57.60
2019-05-21T06:59:46.542Z,63.67
2019-05-21T07:02:32.869Z,54.63
2019-05-21T07:05:18.927Z,59.03
2019-05-21T07:08:05.187Z,60.57
2019-05-21T07:10:51.487Z,54.63
2019-05-21T07:13:37.608Z,61.60
2019-05-21T07:16:23.697Z,51.03
2019-05-21T07:19:10.037Z,52.67
2019-05-21T07:22:11.556Z,50.30
2019-05-21T07:24:44.307Z,53.50
2019-05-21T07:27:30.648Z,49.27
2019-05-21T07:30:16.874Z,48.33
2019-05-21T07:33:03.168Z,49.10
2019-05-21T07:35:49.795Z,45.17
2019-05-21T07:38:52.086Z,47.93
2019-05-21T07:41:24.184Z,49.87
2019-05-21T07:44:10.601Z,51.33
2019-05-21T07:46:56.741Z,48.87
2019-05-21T07:49:42.920Z,51.13
2019-05-21T07:52:29.353Z,47.37
2019-05-21T07:55:15.352Z,47.70
2019-05-21T07:58:01.670Z,44.70
2019-05-21T08:00:48.023Z,45.60
2019-05-21T08:03:34.423Z,42.53
2019-05-21T08:06:20.681Z,43.63
2019-05-21T08:09:13.187Z,38.17
2019-05-21T08:11:54.804Z,38.57
2019-05-21T08:14:41.082Z,40.07
2019-05-21T08:17:27.198Z,37.10
2019-05-21T08:20:15.328Z,33.83
2019-05-21T08:23:01.548Z,34.60
2019-05-21T08:25:47.693Z,35.40
2019-05-21T08:28:33.677Z,35.30
2019-05-21T08:31:19.937Z,29.60
2019-05-21T08:34:05.997Z,27.73
2019-05-21T08:36:52.063Z,27.57
2019-05-21T08:39:38.477Z,29.47
2019-05-21T08:42:24.709Z,27.20
2019-05-21T08:45:11.185Z,26.10
2019-05-21T08:47:57.592Z,27.77
2019-05-21T08:50:43.860Z,27.40
2019-05-21T08:53:30.133Z,27.93
2019-05-21T08:56:16.298Z,26.53
2019-05-21T08:59:02.569Z,27.40
2019-05-21T09:01:48.637Z,25.33
2019-05-21T09:07:15.049Z,22.63
2019-05-21T09:07:22.861Z,22.87
2019-05-21T09:10:09.706Z,21.00
2019-05-21T09:12:56.282Z,21.00
2019-05-21T09:15:42.422Z,23.40
2019-05-21T09:18:28.623Z,22.63
2019-05-21T09:21:14.682Z,21.70
2019-05-21T09:24:00.862Z,20.53
2019-05-21T09:26:47.217Z,21.10
2019-05-21T09:29:33.540Z,21.57
2019-05-21T09:32:19.697Z,23.03
2019-05-21T09:35:06.518Z,23.23
2019-05-21T09:37:52.606Z,25.23
2019-05-21T09:40:38.798Z,24.00
2019-05-21T09:43:24.987Z,24.63
2019-05-21T09:46:11.177Z,25.53
2019-05-21T09:48:57.381Z,25.43
2019-05-21T09:51:43.471Z,22.57
2019-05-21T09:54:29.585Z,20.23
2019-05-21T09:57:19.886Z,25.03
2019-05-21T10:00:36.715Z,21.80
2019-05-21T10:03:25.009Z,24.60
2019-05-21T10:06:11.243Z,24.87
2019-05-21T10:08:57.596Z,25.87
2019-05-21T10:11:43.801Z,23.33
2019-05-21T10:14:33.929Z,24.47
2019-05-21T10:17:18.207Z,23.40
2019-05-21T10:20:05.114Z,23.37
2019-05-21T10:22:51.397Z,25.67
2019-05-21T10:25:37.962Z,24.63
2019-05-21T10:28:23.711Z,22.33
2019-05-21T10:31:10.076Z,25.83
2019-05-21T10:33:56.732Z,24.87
2019-05-21T10:36:42.775Z,22.57
2019-05-21T10:39:29.033Z,21.17
2019-05-21T10:42:15.072Z,24.67
2019-05-21T10:45:01.278Z,23.27
2019-05-21T10:47:47.377Z,25.03
2019-05-21T10:50:33.467Z,21.57
2019-05-21T10:53:19.548Z,24.23
2019-05-21T10:56:05.848Z,25.40
2019-05-21T10:58:52.017Z,25.57
2019-05-21T11:02:03.668Z,25.47
2019-05-21T11:04:56.354Z,24.37
2019-05-21T11:07:42.334Z,27.27
2019-05-21T11:10:28.626Z,23.77
2019-05-21T11:13:14.749Z,23.80
2019-05-21T11:16:00.799Z,28.67
2019-05-21T11:18:47.167Z,21.83
2019-05-21T11:21:34.622Z,27.10
2019-05-21T11:24:20.799Z,21.47
2019-05-21T11:27:06.907Z,24.90
2019-05-21T11:29:53.001Z,21.70
2019-05-21T11:32:39.087Z,25.07
2019-05-21T11:35:25.457Z,24.70
2019-05-21T11:38:12.062Z,24.33
2019-05-21T11:40:58.344Z,24.60
2019-05-21T11:43:44.651Z,23.47
2019-05-21T11:46:30.850Z,23.53
2019-05-21T11:49:17.120Z,22.23
2019-05-21T11:52:03.458Z,24.87
2019-05-21T11:54:49.546Z,21.67
2019-05-21T11:57:35.716Z,20.90
2019-05-21T12:00:23.859Z,20.90
2019-05-21T12:03:10.939Z,20.27
2019-05-21T12:05:57.021Z,23.23
2019-05-21T12:08:55.704Z,23.57
2019-05-21T12:11:31.412Z,21.63
2019-05-21T12:14:17.622Z,24.97
2019-05-21T12:17:04.113Z,21.40
2019-05-21T12:19:49.988Z,21.10
2019-05-21T12:22:36.157Z,17.10
2019-05-21T12:25:22.306Z,18.80
2019-05-21T12:28:11.091Z,21.77
2019-05-21T12:30:56.258Z,19.77
2019-05-21T12:33:42.471Z,16.93
2019-05-21T12:36:29.462Z,15.73
2019-05-21T12:39:15.890Z,15.13
2019-05-21T12:42:02.094Z,16.23
2019-05-21T12:44:48.527Z,12.60
2019-05-21T12:47:34.528Z,12.30
2019-05-21T12:50:20.776Z,12.37
2019-05-21T12:53:07.128Z,13.77
2019-05-21T12:55:53.410Z,12.70
2019-05-21T12:58:39.521Z,12.93
2019-05-21T13:01:25.676Z,13.07
2019-05-21T13:04:12.316Z,12.37
2019-05-21T13:06:58.547Z,12.70
2019-05-21T13:09:46.903Z,13.97
2019-05-21T13:12:33.005Z,15.67
2019-05-21T13:15:19.798Z,13.57
2019-05-21T13:18:06.102Z,14.67
2019-05-21T13:20:52.550Z,14.47
2019-05-21T13:23:40.174Z,13.07
2019-05-21T13:26:26.228Z,13.80
2019-05-21T13:29:12.600Z,16.97
2019-05-21T13:31:58.803Z,14.73
2019-05-21T13:34:45.043Z,13.13
2019-05-21T13:37:31.528Z,14.80
2019-05-21T13:40:17.929Z,15.17
2019-05-21T13:43:04.124Z,14.70
2019-05-21T13:45:50.296Z,14.73
2019-05-21T13:48:36.515Z,15.73
2019-05-21T13:51:22.628Z,14.00
2019-05-21T13:54:08.816Z,15.10
2019-05-21T13:56:54.997Z,17.03
2019-05-21T13:59:41.148Z,17.23
2019-05-21T14:02:30.142Z,17.43
2019-05-21T14:05:16.487Z,20.07
2019-05-21T14:08:02.655Z,21.20
2019-05-21T14:10:48.543Z,22.57
2019-05-21T14:13:34.682Z,23.20
2019-05-21T14:16:21.022Z,21.90
2019-05-21T14:19:07.286Z,21.17
2019-05-21T14:21:53.902Z,20.93
2019-05-21T14:24:40.226Z,19.27
2019-05-21T14:27:41.700Z,21.23
2019-05-21T14:30:14.630Z,21.40
2019-05-21T14:33:00.875Z,19.63
2019-05-21T14:35:46.878Z,20.87
2019-05-21T14:38:33.275Z,21.93
2019-05-21T14:41:19.648Z,19.93
2019-05-21T14:44:07.806Z,20.57
2019-05-21T14:46:53.979Z,19.83
2019-05-21T14:49:40.315Z,22.00
2019-05-21T14:52:26.474Z,21.33
2019-05-21T14:55:12.729Z,20.83
2019-05-21T14:57:59.177Z,22.53
2019-05-21T15:00:45.032Z,21.37
2019-05-21T15:03:31.183Z,20.60
2019-05-21T15:06:17.471Z,20.47
2019-05-21T15:09:04.694Z,20.73
2019-05-21T15:11:50.867Z,24.00
2019-05-21T15:14:37.042Z,20.43
2019-05-21T15:17:23.241Z,19.13
2019-05-21T15:20:17.598Z,20.37
2019-05-21T15:23:03.868Z,22.83
2019-05-21T15:25:50.048Z,20.97
2019-05-21T15:28:36.252Z,20.60
2019-05-21T15:31:22.884Z,19.37
2019-05-21T15:34:09.012Z,18.47
2019-05-21T15:36:55.331Z,18.23
2019-05-21T15:39:41.622Z,17.40
2019-05-21T15:42:27.689Z,16.70
2019-05-21T15:45:13.884Z,17.47
2019-05-21T15:48:00.092Z,21.60
2019-05-21T15:50:46.228Z,18.13
2019-05-21T15:53:32.702Z,17.30
2019-05-21T15:56:19.317Z,21.87
2019-05-21T15:59:05.501Z,18.03
2019-05-21T16:01:51.922Z,17.77
2019-05-21T16:04:38.278Z,18.27
2019-05-21T16:07:24.422Z,18.07
2019-05-21T16:10:10.789Z,18.43
2019-05-21T16:12:57.011Z,19.23
2019-05-21T16:15:43.073Z,18.60
2019-05-21T16:18:29.367Z,19.53
2019-05-21T16:21:15.257Z,19.23
2019-05-21T16:24:01.656Z,19.27
2019-05-21T16:26:47.701Z,19.43
2019-05-21T16:29:33.712Z,19.57
2019-05-21T16:32:19.877Z,19.87
2019-05-21T16:35:06.768Z,20.20
2019-05-21T16:37:52.981Z,18.90
2019-05-21T16:40:39.219Z,20.43
2019-05-21T16:43:25.602Z,19.70
2019-05-21T16:46:11.967Z,20.07
2019-05-21T16:48:58.072Z,20.90
2019-05-21T16:51:44.416Z,19.83
2019-05-21T16:54:30.760Z,20.73
2019-05-21T16:57:16.918Z,19.50
2019-05-21T17:00:03.578Z,20.87
2019-05-21T17:02:49.721Z,20.23
2019-05-21T17:05:35.962Z,19.43
2019-05-21T17:08:22.048Z,19.00
2019-05-21T17:11:09.678Z,19.67
2019-05-21T17:13:55.950Z,20.47
2019-05-21T17:16:43.177Z,20.23
2019-05-21T17:19:29.302Z,20.63
2019-05-21T17:22:15.602Z,22.57
2019-05-21T17:25:01.737Z,20.57
2019-05-21T17:27:47.751Z,22.47
2019-05-21T17:30:34.174Z,21.13
2019-05-21T17:33:20.338Z,21.90
2019-05-21T17:36:06.380Z,21.20
2019-05-21T17:38:52.564Z,22.20
2019-05-21T17:41:38.787Z,20.70
2019-05-21T17:44:25.106Z,21.50
2019-05-21T17:47:11.034Z,20.93
2019-05-21T17:49:57.627Z,22.20
2019-05-21T17:52:44.372Z,21.87
2019-05-21T17:55:31.092Z,22.10
2019-05-21T17:58:18.558Z,23.07
2019-05-21T18:01:08.542Z,23.00
2019-05-21T18:03:55.206Z,22.03
2019-05-21T18:06:42.098Z,22.00
2019-05-21T18:09:28.737Z,21.90
2019-05-21T18:12:31.105Z,22.10
2019-05-21T18:15:06.114Z,23.20
2019-05-21T18:17:52.441Z,24.80
2019-05-21T18:20:39.322Z,22.50
2019-05-21T18:23:26.461Z,23.47
2019-05-21T18:26:12.873Z,25.27
2019-05-21T18:28:59.367Z,22.83
2019-05-21T18:31:46.362Z,24.87
2019-05-21T18:34:32.882Z,25.57
2019-05-21T18:37:19.586Z,27.30
2019-05-21T18:40:06.737Z,25.07
2019-05-21T18:42:52.987Z,25.83
2019-05-21T18:45:39.092Z,24.27
2019-05-21T18:48:25.896Z,31.07
2019-05-21T18:51:12.561Z,23.83
2019-05-21T18:54:00.567Z,22.83
2019-05-21T18:56:47.133Z,26.70
2019-05-21T18:59:33.782Z,26.50
2019-05-21T19:02:20.392Z,24.63
2019-05-21T19:05:07.234Z,25.53
2019-05-21T19:07:53.897Z,26.10
2019-05-21T19:10:40.387Z,27.30
2019-05-21T19:13:27.327Z,27.93
2019-05-21T19:16:13.822Z,25.07
2019-05-21T19:19:00.516Z,26.57
2019-05-21T19:21:47.072Z,28.13
2019-05-21T19:24:33.249Z,28.87
2019-05-21T19:27:19.507Z,27.63
2019-05-21T19:30:07.263Z,28.23
2019-05-21T19:32:53.486Z,28.63
2019-05-21T19:35:39.992Z,27.57
2019-05-21T19:38:26.501Z,26.00
2019-05-21T19:41:12.618Z,25.73
2019-05-21T19:43:59.347Z,24.27
2019-05-21T19:46:45.846Z,29.37
2019-05-21T19:49:32.341Z,27.87
2019-05-21T19:52:18.607Z,28.73
2019-05-21T19:55:06.252Z,27.63
2019-05-21T19:57:52.476Z,26.40
2019-05-21T20:00:43.883Z,26.97
2019-05-21T20:03:29.997Z,28.10
2019-05-21T20:06:18.084Z,27.77
2019-05-21T20:09:06.572Z,25.80
2019-05-21T20:11:53.126Z,26.80
2019-05-21T20:14:40.037Z,27.73
2019-05-21T20:17:28.132Z,28.20
2019-05-21T20:20:15.381Z,27.67
2019-05-21T20:23:02.313Z,28.97
2019-05-21T20:25:56.550Z,25.57
2019-05-21T20:28:37.597Z,26.27
2019-05-21T20:31:24.587Z,27.83
2019-05-21T20:34:11.490Z,25.40
2019-05-21T20:36:58.726Z,29.13
2019-05-21T20:39:46.583Z,27.67
2019-05-21T20:42:33.153Z,27.27
2019-05-21T20:45:20.717Z,31.27
2019-05-21T20:48:08.501Z,28.50
2019-05-21T20:50:54.417Z,30.17
2019-05-21T20:53:40.587Z,30.67
2019-05-21T20:56:26.627Z,31.33
2019-05-21T20:59:14.056Z,29.77
2019-05-21T21:02:00.617Z,33.47
2019-05-21T21:04:46.756Z,27.97
2019-05-21T21:07:33.003Z,29.53
2019-05-21T21:10:19.517Z,28.60
2019-05-21T21:13:05.797Z,26.60
2019-05-21T21:15:51.942Z,28.97
2019-05-21T21:18:38.362Z,29.87
2019-05-21T21:21:25.619Z,33.23
2019-05-21T21:24:11.588Z,30.20
2019-05-21T21:26:57.642Z,30.50
2019-05-21T21:29:43.662Z,27.53
2019-05-21T21:32:30.098Z,28.80
2019-05-21T21:35:16.482Z,30.57
2019-05-21T21:38:04.652Z,29.47
2019-05-21T21:40:50.770Z,28.30
2019-05-21T21:43:36.876Z,29.50
2019-05-21T21:46:23.281Z,33.07
2019-05-21T21:49:10.042Z,30.50
2019-05-21T21:51:56.876Z,38.27
2019-05-21T21:54:43.677Z,29.63
2019-05-21T21:57:29.972Z,29.07
2019-05-21T22:01:22.172Z,29.13
2019-05-21T22:04:12.269Z,30.37
2019-05-21T22:06:58.705Z,29.27
2019-05-21T22:09:45.156Z,32.70
2019-05-21T22:12:33.403Z,30.63
2019-05-21T22:15:20.498Z,32.83
2019-05-21T22:18:07.426Z,30.53
2019-05-21T22:20:55.499Z,30.73
2019-05-21T22:23:41.371Z,33.17
2019-05-21T22:26:27.832Z,31.43
2019-05-21T22:29:14.632Z,31.67
2019-05-21T22:32:00.807Z,32.70
2019-05-21T22:34:47.007Z,32.60
2019-05-21T22:37:33.457Z,33.53
2019-05-21T22:40:19.813Z,31.97
2019-05-21T22:43:05.736Z,32.83
2019-05-21T22:45:51.886Z,33.93
2019-05-21T22:48:38.192Z,35.83
2019-05-21T22:51:24.411Z,35.73
2019-05-21T22:54:10.668Z,34.63
2019-05-21T22:56:56.813Z,37.33
2019-05-21T22:59:43.172Z,35.33
2019-05-21T23:02:31.766Z,33.93
2019-05-21T23:05:18.057Z,30.60
2019-05-21T23:08:04.767Z,35.60
2019-05-21T23:10:50.834Z,33.30
2019-05-21T23:13:37.022Z,33.60
2019-05-21T23:16:23.232Z,32.70
2019-05-21T23:19:11.172Z,34.13
2019-05-21T23:21:58.578Z,38.10
2019-05-21T23:24:45.878Z,36.43
2019-05-21T23:27:32.412Z,33.97
2019-05-21T23:30:19.157Z,36.70
2019-05-21T23:33:05.942Z,37.67
2019-05-21T23:35:52.181Z,36.53
2019-05-21T23:38:38.577Z,39.70
2019-05-21T23:41:26.312Z,40.13
2019-05-21T23:44:13.622Z,39.50
2019-05-21T23:46:59.462Z,40.23
2019-05-21T23:49:45.834Z,41.10
2019-05-21T23:52:32.187Z,43.03
2019-05-21T23:55:18.512Z,45.23
2019-05-21T23:58:05.938Z,40.43
